createdAt,value
2017-10-13T00:00:34.908Z,9.69
2017-10-13T00:01:34.905Z,9.66
2017-10-13T00:02:34.905Z,9.55
2017-10-13T00:03:34.903Z,9.50
2017-10-13T00:04:34.900Z,9.43
2017-10-13T00:05:34.899Z,9.36
2017-10-13T00:06:34.897Z,9.29
2017-10-13T00:07:34.894Z,9.41
2017-10-13T00:08:34.890Z,9.37
2017-10-13T00:09:34.889Z,9.46
2017-10-13T00:10:34.887Z,9.44
2017-10-13T00:11:34.887Z,9.32
2017-10-13T00:12:34.882Z,9.44
2017-10-13T00:13:34.882Z,9.43
2017-10-13T00:14:34.879Z,9.47
2017-10-13T00:15:34.875Z,9.41
2017-10-13T00:16:34.873Z,9.43
2017-10-13T00:17:34.872Z,9.26
2017-10-13T00:18:34.870Z,9.26
2017-10-13T00:19:34.867Z,9.39
2017-10-13T00:20:34.865Z,9.23
2017-10-13T00:21:34.863Z,9.29
2017-10-13T00:22:34.861Z,9.31
2017-10-13T00:23:34.858Z,9.18
2017-10-13T00:24:34.856Z,9.10
2017-10-13T00:25:34.854Z,9.19
2017-10-13T00:26:34.851Z,9.14
2017-10-13T00:27:34.849Z,9.04
2017-10-13T00:28:34.846Z,9.11
2017-10-13T00:29:34.845Z,8.95
2017-10-13T00:30:34.843Z,9.08
2017-10-13T00:31:34.838Z,9.06
2017-10-13T00:32:34.834Z,8.97
2017-10-13T00:33:34.833Z,9.04
2017-10-13T00:34:34.832Z,9.02
2017-10-13T00:35:34.829Z,9.04
2017-10-13T00:36:34.824Z,9.03
2017-10-13T00:37:34.823Z,8.95
2017-10-13T00:38:34.819Z,9.14
2017-10-13T00:39:34.819Z,9.13
2017-10-13T00:40:34.816Z,9.08
2017-10-13T00:41:34.812Z,9.02
2017-10-13T00:42:34.811Z,9.08
2017-10-13T00:43:34.806Z,8.92
2017-10-13T00:44:34.802Z,8.99
2017-10-13T00:45:34.803Z,8.94
2017-10-13T00:46:34.800Z,8.82
2017-10-13T00:47:34.796Z,8.82
2017-10-13T00:48:34.797Z,8.69
2017-10-13T00:49:34.789Z,8.61
2017-10-13T00:50:34.792Z,8.64
2017-10-13T00:51:34.786Z,8.73
2017-10-13T00:52:34.781Z,8.69
2017-10-13T00:53:34.779Z,8.67
2017-10-13T00:54:34.776Z,8.69
2017-10-13T00:55:34.773Z,8.64
2017-10-13T00:56:34.771Z,8.67
2017-10-13T00:57:34.766Z,8.69
2017-10-13T00:58:34.765Z,8.69
2017-10-13T00:59:34.761Z,8.64
2017-10-13T01:00:34.758Z,8.71
2017-10-13T01:01:34.756Z,8.67
2017-10-13T01:02:34.758Z,8.53
2017-10-13T01:03:34.750Z,8.56
2017-10-13T01:04:34.746Z,8.64
2017-10-13T01:05:34.743Z,8.56
2017-10-13T01:06:34.739Z,8.58
2017-10-13T01:07:34.738Z,8.63
2017-10-13T01:08:34.733Z,8.48
2017-10-13T01:09:34.732Z,8.53
2017-10-13T01:10:34.729Z,8.60
2017-10-13T01:11:34.723Z,8.60
2017-10-13T01:12:34.720Z,8.60
2017-10-13T01:13:34.721Z,8.61
2017-10-13T01:14:34.715Z,8.61
2017-10-13T01:15:34.714Z,8.63
2017-10-13T01:16:34.707Z,8.60
2017-10-13T01:17:34.705Z,8.55
2017-10-13T01:18:34.703Z,8.52
2017-10-13T01:19:34.700Z,8.52
2017-10-13T01:20:34.694Z,8.60
2017-10-13T01:21:34.693Z,8.61
2017-10-13T01:22:34.689Z,8.63
2017-10-13T01:23:34.687Z,8.63
2017-10-13T01:24:34.682Z,8.63
2017-10-13T01:25:34.680Z,8.61
2017-10-13T01:26:34.677Z,8.60
2017-10-13T01:27:34.674Z,8.61
2017-10-13T01:28:34.670Z,8.64
2017-10-13T01:29:34.667Z,8.60
2017-10-13T01:30:34.663Z,8.46
2017-10-13T01:31:34.661Z,8.52
2017-10-13T01:32:34.656Z,8.56
2017-10-13T01:33:34.654Z,8.61
2017-10-13T01:34:34.654Z,8.73
2017-10-13T01:35:34.647Z,8.67
2017-10-13T01:36:34.643Z,8.60
2017-10-13T01:37:34.640Z,8.71
2017-10-13T01:38:34.637Z,8.66
2017-10-13T01:39:34.634Z,8.63
2017-10-13T01:40:34.630Z,8.61
2017-10-13T01:41:34.627Z,8.61
2017-10-13T01:42:34.624Z,8.48
2017-10-13T01:43:34.620Z,8.48
2017-10-13T01:44:34.616Z,8.38
2017-10-13T01:45:34.613Z,8.38
2017-10-13T01:46:34.611Z,8.30
2017-10-13T01:47:34.606Z,8.30
2017-10-13T01:48:34.601Z,8.36
2017-10-13T01:49:34.600Z,8.36
2017-10-13T01:50:34.596Z,8.38
2017-10-13T01:51:34.593Z,8.46
2017-10-13T01:52:34.588Z,8.49
2017-10-13T01:53:34.586Z,8.48
2017-10-13T01:54:34.583Z,8.41
2017-10-13T01:55:34.580Z,8.44
2017-10-13T01:56:34.577Z,8.44
2017-10-13T01:57:34.572Z,8.48
2017-10-13T01:58:34.570Z,8.48
2017-10-13T01:59:34.566Z,8.49
2017-10-13T02:00:34.563Z,8.49
2017-10-13T02:01:34.558Z,8.49
2017-10-13T02:02:34.556Z,8.52
2017-10-13T02:03:34.554Z,8.51
2017-10-13T02:04:34.551Z,8.46
2017-10-13T02:05:34.547Z,8.53
2017-10-13T02:06:34.543Z,8.46
2017-10-13T02:07:34.541Z,8.55
2017-10-13T02:08:34.537Z,8.49
2017-10-13T02:09:34.535Z,8.53
2017-10-13T02:10:34.531Z,8.56
2017-10-13T02:11:34.526Z,8.53
2017-10-13T02:12:34.522Z,8.52
2017-10-13T02:13:34.520Z,8.58
2017-10-13T02:14:34.517Z,8.46
2017-10-13T02:15:34.513Z,8.52
2017-10-13T02:16:34.510Z,8.49
2017-10-13T02:17:34.511Z,8.49
2017-10-13T02:18:34.505Z,8.44
2017-10-13T02:19:34.501Z,8.46
2017-10-13T02:20:34.495Z,8.42
2017-10-13T02:21:34.493Z,8.41
2017-10-13T02:22:34.490Z,8.28
2017-10-13T02:23:34.487Z,8.38
2017-10-13T02:24:34.482Z,8.36
2017-10-13T02:25:34.480Z,8.37
2017-10-13T02:26:34.480Z,8.28
2017-10-13T02:27:34.475Z,8.37
2017-10-13T02:28:34.470Z,8.28
2017-10-13T02:29:34.466Z,8.36
2017-10-13T02:30:34.463Z,8.28
2017-10-13T02:31:34.460Z,8.20
2017-10-13T02:32:34.455Z,8.26
2017-10-13T02:33:34.453Z,8.18
2017-10-13T02:34:34.450Z,8.19
2017-10-13T02:35:34.446Z,8.18
2017-10-13T02:36:34.442Z,8.15
2017-10-13T02:37:34.440Z,8.06
2017-10-13T02:38:34.436Z,8.01
2017-10-13T02:39:34.433Z,8.05
2017-10-13T02:40:34.429Z,8.12
2017-10-13T02:41:34.425Z,8.13
2017-10-13T02:42:34.423Z,8.34
2017-10-13T02:43:34.420Z,8.27
2017-10-13T02:44:34.416Z,8.37
2017-10-13T02:45:34.416Z,8.48
2017-10-13T02:46:34.406Z,8.46
2017-10-13T02:47:34.405Z,8.38
2017-10-13T02:48:34.401Z,8.51
2017-10-13T02:49:34.397Z,8.37
2017-10-13T02:50:34.394Z,8.33
2017-10-13T02:51:34.390Z,8.33
2017-10-13T02:52:34.386Z,8.30
2017-10-13T02:53:34.383Z,8.33
2017-10-13T02:54:34.383Z,8.33
2017-10-13T02:55:34.376Z,8.37
2017-10-13T02:56:34.373Z,8.42
2017-10-13T02:57:34.369Z,8.42
2017-10-13T02:58:34.365Z,8.37
2017-10-13T02:59:34.365Z,8.45
2017-10-13T03:00:34.360Z,8.71
2017-10-13T03:01:34.354Z,8.82
2017-10-13T03:02:34.349Z,8.82
2017-10-13T03:03:34.347Z,8.92
2017-10-13T03:04:34.344Z,9.02
2017-10-13T03:05:34.341Z,9.11
2017-10-13T03:06:34.337Z,9.16
2017-10-13T03:07:34.334Z,9.22
2017-10-13T03:08:34.332Z,9.28
2017-10-13T03:09:34.327Z,9.40
2017-10-13T03:10:34.323Z,9.41
2017-10-13T03:11:34.320Z,9.59
2017-10-13T03:12:34.317Z,9.58
2017-10-13T03:13:34.312Z,9.51
2017-10-13T03:14:34.309Z,9.73
2017-10-13T03:15:34.308Z,9.82
2017-10-13T03:16:34.304Z,9.83
2017-10-13T03:17:34.299Z,9.83
2017-10-13T03:18:34.298Z,9.82
2017-10-13T03:19:34.295Z,9.87
2017-10-13T03:20:34.290Z,9.86
2017-10-13T03:21:34.288Z,9.83
2017-10-13T03:22:34.284Z,9.84
2017-10-13T03:23:34.283Z,9.86
2017-10-13T03:24:34.282Z,9.68
2017-10-13T03:25:34.277Z,9.62
2017-10-13T03:26:34.274Z,9.64
2017-10-13T03:27:34.269Z,9.66
2017-10-13T03:28:34.267Z,9.65
2017-10-13T03:29:34.266Z,9.55
2017-10-13T03:30:34.262Z,9.54
2017-10-13T03:31:34.258Z,9.47
2017-10-13T03:32:34.253Z,9.47
2017-10-13T03:33:34.251Z,9.41
2017-10-13T03:34:34.248Z,9.36
2017-10-13T03:35:34.246Z,9.29
2017-10-13T03:36:34.242Z,9.36
2017-10-13T03:37:34.239Z,9.29
2017-10-13T03:38:34.237Z,9.32
2017-10-13T03:39:34.235Z,9.31
2017-10-13T03:40:34.230Z,9.48
2017-10-13T03:41:34.226Z,9.64
2017-10-13T03:42:34.228Z,9.58
2017-10-13T03:43:34.222Z,9.58
2017-10-13T03:44:34.223Z,9.56
2017-10-13T03:45:34.215Z,9.59
2017-10-13T03:46:34.213Z,9.61
2017-10-13T03:47:34.212Z,9.54
2017-10-13T03:48:34.207Z,9.55
2017-10-13T03:49:34.201Z,9.55
2017-10-13T03:50:34.199Z,9.51
2017-10-13T03:51:34.197Z,9.37
2017-10-13T03:52:34.195Z,9.47
2017-10-13T03:53:34.192Z,9.28
2017-10-13T03:54:34.187Z,9.31
2017-10-13T03:55:34.185Z,9.29
2017-10-13T03:56:34.181Z,9.43
2017-10-13T03:57:34.179Z,9.40
2017-10-13T03:58:34.176Z,9.32
2017-10-13T03:59:34.173Z,9.29
2017-10-13T04:00:34.174Z,9.19
2017-10-13T04:01:34.167Z,9.10
2017-10-13T04:02:34.163Z,9.08
2017-10-13T04:03:34.161Z,9.14
2017-10-13T04:04:34.156Z,8.99
2017-10-13T04:05:34.155Z,9.03
2017-10-13T04:06:34.154Z,9.03
2017-10-13T04:07:34.149Z,8.99
2017-10-13T04:08:34.145Z,9.06
2017-10-13T04:09:34.142Z,9.08
2017-10-13T04:10:34.139Z,9.04
2017-10-13T04:11:34.136Z,9.14
2017-10-13T04:12:34.132Z,9.25
2017-10-13T04:13:34.130Z,9.34
2017-10-13T04:14:34.136Z,9.44
2017-10-13T04:15:34.125Z,9.44
2017-10-13T04:16:34.140Z,9.39
2017-10-13T04:17:34.117Z,9.55
2017-10-13T04:18:34.115Z,9.48
2017-10-13T04:19:34.112Z,9.62
2017-10-13T04:20:34.109Z,9.61
2017-10-13T04:21:34.107Z,9.58
2017-10-13T04:22:34.102Z,9.65
2017-10-13T04:23:34.099Z,9.66
2017-10-13T04:24:34.098Z,9.64
2017-10-13T04:25:34.098Z,9.59
2017-10-13T04:26:34.090Z,9.65
2017-10-13T04:27:34.087Z,9.59
2017-10-13T04:28:34.084Z,9.54
2017-10-13T04:29:34.083Z,9.47
2017-10-13T04:30:34.079Z,9.34
2017-10-13T04:31:34.075Z,9.32
2017-10-13T04:32:34.073Z,9.31
2017-10-13T04:33:34.070Z,9.22
2017-10-13T04:34:34.067Z,9.13
2017-10-13T04:35:34.063Z,9.08
2017-10-13T04:36:34.060Z,9.13
2017-10-13T04:37:34.058Z,8.97
2017-10-13T04:38:34.055Z,8.95
2017-10-13T04:39:34.051Z,8.95
2017-10-13T04:40:34.048Z,8.99
2017-10-13T04:41:34.045Z,8.94
2017-10-13T04:42:34.043Z,8.91
2017-10-13T04:43:34.041Z,8.99
2017-10-13T04:44:34.037Z,8.95
2017-10-13T04:45:34.034Z,9.03
2017-10-13T04:46:34.031Z,8.97
2017-10-13T04:47:34.029Z,9.03
2017-10-13T04:48:34.036Z,9.10
2017-10-13T04:49:34.022Z,9.13
2017-10-13T04:50:34.018Z,9.22
2017-10-13T04:51:34.017Z,9.19
2017-10-13T04:52:34.019Z,9.16
2017-10-13T04:53:34.011Z,9.18
2017-10-13T04:54:34.005Z,9.25
2017-10-13T04:55:34.004Z,9.25
2017-10-13T04:56:34.000Z,9.25
2017-10-13T04:57:33.999Z,9.31
2017-10-13T04:58:33.995Z,9.40
2017-10-13T04:59:33.991Z,9.39
2017-10-13T05:00:33.990Z,9.54
2017-10-13T05:01:33.987Z,9.62
2017-10-13T05:02:33.984Z,9.66
2017-10-13T05:03:33.980Z,9.77
2017-10-13T05:04:33.982Z,9.77
2017-10-13T05:05:33.976Z,9.92
2017-10-13T05:06:33.973Z,9.95
2017-10-13T05:07:33.969Z,10.01
2017-10-13T05:08:33.973Z,10.13
2017-10-13T05:09:33.965Z,10.12
2017-10-13T05:10:33.962Z,10.30
2017-10-13T05:11:33.964Z,10.25
2017-10-13T05:12:33.955Z,10.30
2017-10-13T05:13:33.954Z,10.31
2017-10-13T05:14:33.952Z,10.37
2017-10-13T05:15:33.949Z,10.40
2017-10-13T05:16:33.945Z,10.46
2017-10-13T05:17:33.943Z,10.41
2017-10-13T05:18:33.941Z,10.59
2017-10-13T05:19:33.940Z,10.60
2017-10-13T05:20:33.935Z,10.61
2017-10-13T05:21:33.934Z,10.74
2017-10-13T05:22:33.933Z,10.72
2017-10-13T05:23:33.962Z,10.74
2017-10-13T05:24:33.926Z,10.79
2017-10-13T05:25:33.923Z,10.90
2017-10-13T05:26:33.924Z,10.90
2017-10-13T05:27:33.919Z,10.86
2017-10-13T05:28:33.915Z,10.76
2017-10-13T05:29:33.915Z,10.86
2017-10-13T05:30:33.912Z,10.78
2017-10-13T05:31:33.911Z,10.72
2017-10-13T05:32:33.908Z,10.74
2017-10-13T05:33:33.904Z,10.81
2017-10-13T05:34:33.903Z,10.86
2017-10-13T05:35:33.899Z,10.86
2017-10-13T05:36:33.898Z,10.81
2017-10-13T05:37:33.895Z,10.82
2017-10-13T05:38:33.893Z,10.93
2017-10-13T05:39:33.890Z,10.87
2017-10-13T05:40:33.888Z,10.90
2017-10-13T05:41:33.886Z,10.94
2017-10-13T05:42:33.884Z,10.94
2017-10-13T05:43:33.881Z,10.89
2017-10-13T05:44:33.878Z,11.00
2017-10-13T05:45:33.878Z,10.96
2017-10-13T05:46:33.874Z,10.99
2017-10-13T05:47:33.871Z,10.96
2017-10-13T05:48:33.868Z,10.94
2017-10-13T05:49:33.869Z,10.93
2017-10-13T05:50:33.865Z,10.99
2017-10-13T05:51:33.864Z,10.93
2017-10-13T05:52:33.861Z,10.97
2017-10-13T05:53:33.861Z,10.94
2017-10-13T05:54:33.858Z,10.99
2017-10-13T05:55:33.855Z,11.07
2017-10-13T05:56:33.853Z,11.08
2017-10-13T05:57:33.851Z,11.07
2017-10-13T05:58:33.849Z,11.04
2017-10-13T05:59:33.847Z,11.05
2017-10-13T06:00:33.845Z,11.08
2017-10-13T06:01:33.842Z,11.08
2017-10-13T06:02:33.841Z,11.12
2017-10-13T06:03:33.840Z,11.07
2017-10-13T06:04:33.850Z,11.15
2017-10-13T06:05:33.834Z,11.12
2017-10-13T06:06:33.834Z,11.08
2017-10-13T06:07:33.832Z,11.05
2017-10-13T06:08:33.829Z,11.05
2017-10-13T06:09:33.826Z,11.10
2017-10-13T06:10:33.827Z,11.14
2017-10-13T06:11:33.824Z,11.18
2017-10-13T06:12:33.821Z,11.15
2017-10-13T06:13:33.820Z,11.14
2017-10-13T06:14:33.818Z,11.14
2017-10-13T06:15:33.817Z,11.12
2017-10-13T06:16:33.813Z,11.18
2017-10-13T06:17:33.814Z,11.17
2017-10-13T06:18:33.811Z,11.19
2017-10-13T06:19:33.810Z,11.30
2017-10-13T06:20:33.806Z,11.32
2017-10-13T06:21:33.805Z,11.33
2017-10-13T06:22:33.804Z,11.22
2017-10-13T06:23:33.803Z,11.36
2017-10-13T06:24:33.799Z,11.33
2017-10-13T06:25:33.798Z,11.36
2017-10-13T06:26:33.798Z,11.35
2017-10-13T06:27:33.796Z,11.40
2017-10-13T06:28:33.792Z,11.40
2017-10-13T06:29:33.791Z,11.41
2017-10-13T06:30:33.789Z,11.33
2017-10-13T06:31:33.791Z,11.50
2017-10-13T06:32:33.787Z,11.50
2017-10-13T06:33:33.784Z,11.50
2017-10-13T06:34:33.782Z,11.44
2017-10-13T06:35:33.784Z,11.44
2017-10-13T06:36:33.781Z,11.41
2017-10-13T06:37:33.778Z,11.40
2017-10-13T06:38:33.776Z,11.48
2017-10-13T06:39:33.775Z,11.48
2017-10-13T06:40:33.773Z,11.52
2017-10-13T06:41:33.771Z,11.54
2017-10-13T06:42:33.769Z,11.51
2017-10-13T06:43:33.768Z,11.52
2017-10-13T06:44:33.765Z,11.48
2017-10-13T06:45:33.766Z,11.44
2017-10-13T06:46:33.765Z,11.48
2017-10-13T06:47:33.762Z,11.52
2017-10-13T06:48:33.761Z,11.47
2017-10-13T06:49:33.759Z,11.45
2017-10-13T06:50:33.758Z,11.52
2017-10-13T06:51:33.757Z,11.48
2017-10-13T06:52:33.755Z,11.50
2017-10-13T06:53:33.753Z,11.50
2017-10-13T06:54:33.753Z,11.48
2017-10-13T06:55:33.759Z,11.52
2017-10-13T06:56:33.757Z,11.52
2017-10-13T06:57:33.749Z,11.52
2017-10-13T06:58:33.748Z,11.48
2017-10-13T06:59:33.748Z,11.52
2017-10-13T07:00:33.744Z,11.54
2017-10-13T07:01:33.744Z,11.48
2017-10-13T07:02:33.742Z,11.52
2017-10-13T07:03:33.742Z,11.57
2017-10-13T07:04:33.740Z,11.65
2017-10-13T07:05:33.738Z,11.70
2017-10-13T07:06:33.739Z,11.80
2017-10-13T07:07:33.738Z,11.83
2017-10-13T07:08:33.736Z,11.83
2017-10-13T07:09:33.734Z,11.86
2017-10-13T07:10:33.733Z,11.94
2017-10-13T07:11:33.732Z,11.91
2017-10-13T07:12:33.732Z,11.90
2017-10-13T07:13:33.731Z,12.02
2017-10-13T07:14:33.730Z,12.12
2017-10-13T07:15:33.730Z,12.13
2017-10-13T07:16:33.727Z,12.13
2017-10-13T07:17:33.726Z,12.20
2017-10-13T07:18:33.727Z,12.27
2017-10-13T07:19:33.727Z,12.28
2017-10-13T07:20:33.723Z,12.31
2017-10-13T07:21:33.724Z,12.28
2017-10-13T07:22:33.723Z,12.25
2017-10-13T07:23:33.724Z,12.28
2017-10-13T07:24:33.722Z,12.32
2017-10-13T07:25:33.722Z,12.32
2017-10-13T07:26:33.721Z,12.31
2017-10-13T07:27:33.723Z,12.27
2017-10-13T07:28:33.720Z,12.37
2017-10-13T07:29:33.721Z,12.53
2017-10-13T07:30:33.720Z,12.55
2017-10-13T07:31:33.719Z,12.62
2017-10-13T07:32:33.719Z,12.65
2017-10-13T07:33:33.720Z,12.78
2017-10-13T07:34:33.719Z,12.80
2017-10-13T07:35:33.719Z,12.76
2017-10-13T07:36:33.717Z,12.80
2017-10-13T07:37:33.718Z,12.87
2017-10-13T07:38:33.717Z,12.79
2017-10-13T07:39:33.716Z,12.82
2017-10-13T07:40:33.718Z,12.82
2017-10-13T07:41:33.716Z,12.80
2017-10-13T07:42:33.718Z,12.83
2017-10-13T07:43:33.716Z,12.82
2017-10-13T07:44:33.720Z,12.86
2017-10-13T07:45:33.721Z,12.91
2017-10-13T07:46:33.716Z,12.94
2017-10-13T07:47:33.716Z,12.97
2017-10-13T07:48:33.716Z,13.00
2017-10-13T07:49:33.716Z,13.00
2017-10-13T07:50:33.717Z,13.00
2017-10-13T07:51:33.715Z,13.16
2017-10-13T07:52:33.715Z,13.13
2017-10-13T07:53:33.717Z,13.19
2017-10-13T07:54:33.716Z,13.19
2017-10-13T07:55:33.715Z,13.22
2017-10-13T07:56:33.720Z,13.25
2017-10-13T07:57:33.716Z,13.23
2017-10-13T07:58:33.715Z,13.28
2017-10-13T07:59:33.723Z,13.23
2017-10-13T08:00:33.716Z,13.18
2017-10-13T08:01:33.716Z,13.35
2017-10-13T08:02:33.716Z,13.28
2017-10-13T08:03:33.717Z,13.27
2017-10-13T08:04:33.716Z,13.30
2017-10-13T08:05:33.718Z,13.30
2017-10-13T08:06:33.718Z,13.33
2017-10-13T08:07:33.718Z,13.41
2017-10-13T08:08:33.717Z,13.37
2017-10-13T08:09:33.719Z,13.44
2017-10-13T08:10:33.719Z,13.41
2017-10-13T08:11:33.719Z,13.54
2017-10-13T08:12:33.719Z,13.71
2017-10-13T08:13:33.720Z,13.77
2017-10-13T08:14:33.721Z,13.67
2017-10-13T08:15:33.722Z,13.67
2017-10-13T08:16:33.727Z,13.63
2017-10-13T08:17:33.721Z,13.78
2017-10-13T08:18:33.724Z,13.86
2017-10-13T08:19:33.724Z,13.93
2017-10-13T08:20:33.726Z,13.93
2017-10-13T08:21:33.724Z,13.92
2017-10-13T08:22:33.724Z,13.83
2017-10-13T08:23:33.725Z,13.83
2017-10-13T08:24:33.725Z,13.87
2017-10-13T08:25:33.727Z,13.93
2017-10-13T08:26:33.726Z,13.93
2017-10-13T08:27:33.729Z,14.15
2017-10-13T08:28:33.729Z,14.10
2017-10-13T08:29:33.730Z,14.10
2017-10-13T08:30:33.731Z,14.22
2017-10-13T08:31:33.732Z,14.29
2017-10-13T08:32:33.733Z,14.44
2017-10-13T08:33:33.736Z,14.43
2017-10-13T08:34:33.734Z,14.53
2017-10-13T08:35:33.745Z,14.54
2017-10-13T08:36:33.737Z,14.55
2017-10-13T08:37:33.738Z,14.41
2017-10-13T08:38:33.740Z,14.53
2017-10-13T08:39:33.742Z,14.58
2017-10-13T08:40:33.743Z,14.58
2017-10-13T08:41:33.743Z,14.79
2017-10-13T08:42:33.745Z,14.91
2017-10-13T08:43:33.747Z,14.89
2017-10-13T08:44:33.748Z,14.88
2017-10-13T08:45:33.747Z,14.94
2017-10-13T08:46:33.752Z,14.91
2017-10-13T08:47:33.751Z,14.88
2017-10-13T08:48:33.753Z,14.92
2017-10-13T08:49:33.755Z,14.99
2017-10-13T08:50:33.757Z,14.89
2017-10-13T08:51:33.758Z,14.81
2017-10-13T08:52:33.760Z,14.73
2017-10-13T08:53:33.762Z,14.66
2017-10-13T08:54:33.763Z,14.68
2017-10-13T08:55:33.764Z,14.77
2017-10-13T08:56:33.767Z,14.77
2017-10-13T08:57:33.767Z,14.72
2017-10-13T08:58:33.768Z,14.62
2017-10-13T08:59:33.770Z,14.65
2017-10-13T09:00:33.771Z,14.62
2017-10-13T09:01:33.772Z,14.63
2017-10-13T09:02:33.775Z,14.68
2017-10-13T09:03:33.776Z,14.78
2017-10-13T09:04:33.779Z,14.81
2017-10-13T09:05:33.781Z,14.79
2017-10-13T09:06:33.780Z,14.96
2017-10-13T09:08:33.784Z,14.99
2017-10-13T09:09:33.786Z,15.22
2017-10-13T09:10:33.787Z,15.31
2017-10-13T09:11:33.789Z,15.31
2017-10-13T09:12:33.790Z,15.27
2017-10-13T09:13:33.792Z,15.22
2017-10-13T09:14:33.792Z,15.43
2017-10-13T09:15:33.795Z,15.43
2017-10-13T09:16:33.795Z,15.33
2017-10-13T09:17:33.799Z,15.40
2017-10-13T09:18:33.799Z,15.37
2017-10-13T09:19:33.802Z,15.44
2017-10-13T09:20:33.802Z,15.49
2017-10-13T09:21:33.804Z,15.46
2017-10-13T09:22:33.806Z,15.40
2017-10-13T09:23:33.809Z,15.40
2017-10-13T09:24:33.809Z,15.47
2017-10-13T09:25:33.811Z,15.52
2017-10-13T09:26:33.812Z,15.52
2017-10-13T09:27:33.815Z,15.52
2017-10-13T09:28:33.815Z,15.70
2017-10-13T09:29:33.819Z,16.13
2017-10-13T09:30:33.820Z,16.50
2017-10-13T09:31:33.824Z,16.54
2017-10-13T09:32:33.823Z,16.81
2017-10-13T09:33:33.827Z,17.19
2017-10-13T09:34:33.829Z,17.70
2017-10-13T09:35:33.831Z,17.68
2017-10-13T09:36:33.834Z,17.87
2017-10-13T09:37:33.838Z,17.22
2017-10-13T09:38:33.840Z,16.90
2017-10-13T09:39:33.843Z,16.72
2017-10-13T09:40:33.844Z,16.43
2017-10-13T09:41:33.852Z,16.26
2017-10-13T09:42:33.852Z,16.01
2017-10-13T09:43:33.856Z,15.90
2017-10-13T09:44:33.859Z,16.04
2017-10-13T09:45:33.863Z,16.01
2017-10-13T09:46:33.866Z,16.58
2017-10-13T09:47:33.870Z,16.46
2017-10-13T09:48:33.871Z,16.35
2017-10-13T09:49:33.877Z,16.09
2017-10-13T09:50:33.879Z,16.09
2017-10-13T09:51:33.884Z,16.04
2017-10-13T09:52:33.886Z,16.39
2017-10-13T09:53:33.888Z,16.47
2017-10-13T09:54:33.898Z,16.42
2017-10-13T09:55:33.898Z,16.78
2017-10-13T09:56:33.898Z,16.75
2017-10-13T09:57:33.903Z,16.75
2017-10-13T09:58:33.907Z,16.89
2017-10-13T09:59:33.911Z,16.86
2017-10-13T10:00:33.914Z,17.15
2017-10-13T10:01:33.916Z,17.12
2017-10-13T10:02:33.921Z,16.90
2017-10-13T10:03:33.923Z,16.89
2017-10-13T10:04:33.927Z,17.23
2017-10-13T10:05:33.935Z,16.99
2017-10-13T10:06:33.935Z,17.46
2017-10-13T10:07:33.938Z,17.27
2017-10-13T10:08:33.950Z,17.09
2017-10-13T10:09:33.946Z,16.76
2017-10-13T10:10:33.949Z,16.83
2017-10-13T10:11:33.954Z,16.74
2017-10-13T10:12:33.958Z,16.71
2017-10-13T10:13:33.962Z,16.86
2017-10-13T10:14:33.964Z,16.71
2017-10-13T10:15:33.970Z,16.56
2017-10-13T10:16:33.971Z,16.49
2017-10-13T10:17:33.977Z,16.42
2017-10-13T10:18:33.981Z,16.49
2017-10-13T10:19:33.985Z,16.61
2017-10-13T10:20:33.988Z,16.91
2017-10-13T10:21:33.993Z,17.27
2017-10-13T10:22:33.995Z,17.20
2017-10-13T10:23:34.001Z,17.08
2017-10-13T10:24:34.008Z,17.08
2017-10-13T10:25:34.007Z,17.11
2017-10-13T10:26:34.012Z,17.20
2017-10-13T10:27:34.017Z,17.45
2017-10-13T10:28:34.019Z,17.46
2017-10-13T10:29:34.023Z,17.56
2017-10-13T10:30:34.029Z,17.64
2017-10-13T10:31:34.032Z,17.64
2017-10-13T10:32:34.035Z,17.64
2017-10-13T10:33:34.044Z,17.67
2017-10-13T10:34:34.044Z,17.63
2017-10-13T10:35:34.047Z,17.57
2017-10-13T10:36:34.051Z,17.41
2017-10-13T10:37:34.055Z,17.59
2017-10-13T10:38:34.059Z,17.76
2017-10-13T10:39:34.063Z,17.78
2017-10-13T10:40:34.071Z,17.97
2017-10-13T10:41:34.071Z,17.97
2017-10-13T10:42:34.079Z,18.00
2017-10-13T10:43:34.082Z,17.92
2017-10-13T10:44:34.089Z,17.72
2017-10-13T10:45:34.093Z,17.70
2017-10-13T10:46:34.095Z,17.63
2017-10-13T10:47:34.098Z,17.76
2017-10-13T10:48:34.102Z,17.90
2017-10-13T10:49:34.113Z,17.95
2017-10-13T10:50:34.111Z,18.25
2017-10-13T10:51:34.116Z,18.29
2017-10-13T10:52:34.119Z,18.04
2017-10-13T10:53:34.125Z,18.03
2017-10-13T10:54:34.129Z,17.98
2017-10-13T10:55:34.132Z,17.89
2017-10-13T10:56:34.137Z,18.03
2017-10-13T10:57:34.142Z,18.16
2017-10-13T10:58:34.146Z,18.18
2017-10-13T10:59:34.151Z,18.23
2017-10-13T11:00:34.155Z,18.40
2017-10-13T11:01:34.166Z,18.41
2017-10-13T11:02:34.166Z,18.37
2017-10-13T11:03:34.168Z,18.29
2017-10-13T11:04:34.174Z,18.41
2017-10-13T11:05:34.178Z,18.59
2017-10-13T11:06:34.183Z,18.66
2017-10-13T11:07:34.187Z,18.37
2017-10-13T11:08:34.191Z,18.29
2017-10-13T11:09:34.195Z,18.11
2017-10-13T11:10:34.209Z,17.89
2017-10-13T11:11:34.206Z,17.80
2017-10-13T11:12:34.210Z,17.79
2017-10-13T11:13:34.214Z,17.79
2017-10-13T11:14:34.220Z,17.86
2017-10-13T11:15:34.223Z,17.92
2017-10-13T11:16:34.229Z,17.89
2017-10-13T11:17:34.234Z,17.76
2017-10-13T11:18:34.239Z,17.80
2017-10-13T11:19:34.241Z,17.83
2017-10-13T11:20:34.248Z,17.92
2017-10-13T11:21:34.251Z,17.86
2017-10-13T11:22:34.257Z,18.00
2017-10-13T11:23:34.261Z,18.19
2017-10-13T11:24:34.264Z,18.33
2017-10-13T11:25:34.270Z,18.49
2017-10-13T11:26:34.278Z,18.56
2017-10-13T11:27:34.277Z,18.71
2017-10-13T11:28:34.283Z,18.93
2017-10-13T11:29:34.288Z,18.92
2017-10-13T11:30:34.291Z,18.98
2017-10-13T11:31:34.296Z,18.95
2017-10-13T11:32:34.301Z,18.83
2017-10-13T11:33:34.307Z,18.90
2017-10-13T11:34:34.311Z,18.81
2017-10-13T11:35:34.316Z,18.88
2017-10-13T11:36:34.318Z,18.88
2017-10-13T11:37:34.325Z,18.84
2017-10-13T11:38:34.330Z,18.75
2017-10-13T11:39:34.336Z,18.71
2017-10-13T11:40:34.340Z,18.66
2017-10-13T11:41:34.343Z,18.52
2017-10-13T11:42:34.352Z,18.40
2017-10-13T11:43:34.362Z,18.44
2017-10-13T11:44:34.358Z,18.22
2017-10-13T11:45:34.363Z,18.23
2017-10-13T11:46:34.368Z,18.22
2017-10-13T11:47:34.374Z,18.15
2017-10-13T11:48:34.379Z,18.05
2017-10-13T11:49:34.384Z,18.08
2017-10-13T11:50:34.388Z,18.04
2017-10-13T11:51:34.393Z,17.90
2017-10-13T11:52:34.395Z,17.97
2017-10-13T11:53:34.401Z,17.94
2017-10-13T11:54:34.405Z,17.92
2017-10-13T11:55:34.409Z,18.08
2017-10-13T11:56:34.415Z,18.18
2017-10-13T11:57:34.429Z,18.28
2017-10-13T11:58:34.423Z,18.38
2017-10-13T11:59:34.427Z,18.40
2017-10-13T12:00:34.433Z,18.56
2017-10-13T12:01:34.441Z,18.70
2017-10-13T12:02:34.443Z,18.73
2017-10-13T12:03:34.447Z,18.81
2017-10-13T12:04:34.451Z,18.89
2017-10-13T12:05:34.455Z,18.95
2017-10-13T12:06:34.459Z,18.88
2017-10-13T12:07:34.463Z,18.95
2017-10-13T12:08:34.470Z,18.90
2017-10-13T12:09:34.472Z,19.00
2017-10-13T12:10:34.477Z,19.04
2017-10-13T12:11:34.485Z,18.89
2017-10-13T12:12:34.485Z,18.73
2017-10-13T12:13:34.492Z,18.95
2017-10-13T12:14:34.498Z,18.86
2017-10-13T12:15:34.506Z,18.68
2017-10-13T12:16:34.504Z,18.71
2017-10-13T12:17:34.512Z,18.68
2017-10-13T12:18:34.516Z,18.70
2017-10-13T12:19:34.520Z,18.75
2017-10-13T12:20:34.525Z,18.75
2017-10-13T12:21:34.530Z,18.74
2017-10-13T12:22:34.533Z,18.74
2017-10-13T12:23:34.539Z,18.78
2017-10-13T12:24:34.543Z,18.75
2017-10-13T12:25:34.549Z,18.86
2017-10-13T12:26:34.553Z,18.88
2017-10-13T12:27:34.557Z,18.99
2017-10-13T12:28:34.561Z,19.08
2017-10-13T12:29:34.567Z,19.08
2017-10-13T12:30:34.574Z,18.90
2017-10-13T12:31:34.576Z,19.02
2017-10-13T12:32:34.583Z,18.90
2017-10-13T12:33:34.589Z,18.99
2017-10-13T12:34:34.590Z,19.18
2017-10-13T12:35:34.596Z,19.34
2017-10-13T12:36:34.600Z,19.54
2017-10-13T12:37:34.609Z,19.56
2017-10-13T12:38:34.611Z,19.52
2017-10-13T12:39:34.616Z,19.34
2017-10-13T12:40:34.625Z,19.08
2017-10-13T12:41:34.625Z,19.11
2017-10-13T12:42:34.632Z,19.16
2017-10-13T12:43:34.637Z,19.49
2017-10-13T12:44:34.641Z,19.64
2017-10-13T12:45:34.647Z,19.79
2017-10-13T12:46:34.656Z,19.99
2017-10-13T12:47:34.656Z,20.03
2017-10-13T12:48:34.663Z,20.19
2017-10-13T12:49:34.667Z,20.06
2017-10-13T12:50:34.671Z,20.00
2017-10-13T12:51:34.677Z,19.79
2017-10-13T12:52:34.682Z,19.81
2017-10-13T12:53:34.687Z,19.71
2017-10-13T12:54:34.695Z,19.58
2017-10-13T12:55:34.699Z,19.54
2017-10-13T12:56:34.702Z,19.48
2017-10-13T12:57:34.709Z,19.34
2017-10-13T12:58:34.715Z,19.30
2017-10-13T12:59:34.721Z,19.26
2017-10-13T13:00:34.724Z,19.29
2017-10-13T13:01:34.730Z,19.31
2017-10-13T13:02:34.736Z,19.34
2017-10-13T13:03:34.741Z,19.31